KOWA

Owatonna Degner Regional Airport

Owatonna, Minnesota, USA
METAR KOWA 182213Z AUTO 04006KT 10SM SCT011 SCT075 22/21 A2998 RMK AO2
Observed Flight Rules
Jun-18 @ 22:13 UTC (25 minutes ago) Visual Flight Rules
Wind Visibility Clouds
40° at 6 knots 10 miles
  • Scattered at 1,100' AGL
  • Scattered at 7,500' AGL
Temperatures Readings
Current 22°C / 72°F
Dewpoint 21°C / 70°F
Humidity 94%
Altimeter 29.98" Hg
Pressure 1015 hPa
Elevation 350
METAR KOWA 182213Z AUTO 04006KT 10SM SCT011 SCT075 22/21 A2998 RMK AO2
Observed Flight Rules
Jun-18 @ 22:13 UTC
(25 minutes ago)
VFR
Wind Visibility
40° at 6 knots 10 miles
Clouds
  • Scattered at 1,100' AGL
  • Scattered at 7,500' AGL
Temperature Dewpoint
22°C / 72°F 21°C / 70°F
Humidity Altimeter Pressure
94% 29.98" Hg 1015 hPa